createdAt,value
2023-10-15T00:00:22.459Z,100706.22
2023-10-15T00:02:51.084Z,100744.09
2023-10-15T00:05:28.567Z,100753.97
2023-10-15T00:07:56.108Z,100745.41
2023-10-15T00:10:24.400Z,100753.75
2023-10-15T00:12:54.238Z,100746.28
2023-10-15T00:15:22.189Z,100720.41
2023-10-15T00:17:55.737Z,100689.59
2023-10-15T00:20:28.282Z,100677.28
2023-10-15T00:22:55.159Z,100686.06
2023-10-15T00:25:21.911Z,100631.50
2023-10-15T00:27:58.245Z,100700.84
2023-10-15T00:30:34.617Z,100687.41
2023-10-15T00:33:05.162Z,100688.72
2023-10-15T00:35:37.690Z,100679.94
2023-10-15T00:38:09.184Z,100689.47
2023-10-15T00:40:39.267Z,100690.44
2023-10-15T00:43:06.901Z,100646.50
2023-10-15T00:45:45.116Z,100663.34
2023-10-15T00:48:35.695Z,100682.00
2023-10-15T00:56:28.040Z,100728.81
2023-10-15T00:58:55.037Z,100850.97
2023-10-15T01:01:27.996Z,100838.00
2023-10-15T01:04:00.829Z,100728.88
2023-10-15T01:06:36.044Z,100721.44
2023-10-15T01:09:11.994Z,100679.50
2023-10-15T01:11:45.997Z,100708.69
2023-10-15T01:14:13.286Z,100727.28
2023-10-15T01:16:41.606Z,100689.84
2023-10-15T01:19:11.981Z,100710.88
2023-10-15T01:21:50.208Z,100735.72
2023-10-15T01:24:21.016Z,100758.63
2023-10-15T01:27:11.839Z,100757.44
2023-10-15T01:29:43.801Z,100766.47
2023-10-15T01:32:20.692Z,100657.66
2023-10-15T01:34:50.219Z,100726.50
2023-10-15T01:37:24.545Z,100612.25
2023-10-15T01:40:23.843Z,100652.34
2023-10-15T01:42:55.413Z,100687.78
2023-10-15T01:45:36.670Z,100694.81
2023-10-15T01:48:07.087Z,100694.25
2023-10-15T01:51:03.510Z,100689.13
2023-10-15T01:53:30.105Z,100691.06
2023-10-15T01:56:00.919Z,100694.13
2023-10-15T01:58:34.133Z,100695.41
2023-10-15T02:01:15.154Z,100714.22
2023-10-15T02:03:45.276Z,100729.50
2023-10-15T02:06:11.975Z,100725.66
2023-10-15T02:08:40.859Z,100715.03
2023-10-15T02:11:22.669Z,100693.50
2023-10-15T02:13:50.140Z,100655.94
2023-10-15T02:16:19.086Z,100641.25
2023-10-15T02:18:46.411Z,100647.34
2023-10-15T02:21:17.575Z,100596.56
2023-10-15T02:23:52.262Z,100663.97
2023-10-15T02:26:24.456Z,100677.09
2023-10-15T02:28:57.252Z,100673.13
2023-10-15T02:31:24.361Z,100674.00
2023-10-15T02:33:52.154Z,100666.75
2023-10-15T02:36:19.064Z,100647.22
2023-10-15T02:38:54.808Z,100638.94
2023-10-15T02:41:40.331Z,100662.03
2023-10-15T02:44:14.021Z,100649.03
2023-10-15T02:46:49.294Z,100617.06
2023-10-15T02:49:19.454Z,100674.09
2023-10-15T02:51:49.546Z,100677.06
2023-10-15T02:54:29.061Z,100643.09
2023-10-15T02:57:01.298Z,100703.03
2023-10-15T02:59:31.680Z,100722.75
2023-10-15T03:02:07.949Z,100707.44
2023-10-15T03:04:35.177Z,100709.53
2023-10-15T03:07:20.733Z,100663.84
2023-10-15T03:09:51.647Z,100702.72
2023-10-15T03:12:19.412Z,100727.25
2023-10-15T03:14:46.791Z,100740.97
2023-10-15T03:17:25.351Z,100772.91
2023-10-15T03:20:11.530Z,100575.78
2023-10-15T03:22:39.523Z,100664.81
2023-10-15T03:25:14.617Z,100666.41
2023-10-15T03:27:48.058Z,100682.53
2023-10-15T03:30:15.868Z,100657.84
2023-10-15T03:32:45.917Z,100637.97
2023-10-15T03:35:20.081Z,100664.28
2023-10-15T03:37:47.474Z,100685.09
2023-10-15T03:40:52.914Z,100697.19
2023-10-15T03:43:22.536Z,100709.03
2023-10-15T03:45:52.608Z,100673.38
2023-10-15T03:48:29.616Z,100721.38
2023-10-15T03:50:57.711Z,100702.44
2023-10-15T03:53:36.943Z,100700.47
2023-10-15T03:56:05.611Z,100715.16
2023-10-15T03:58:32.981Z,100666.31
2023-10-15T04:01:18.640Z,100681.91
2023-10-15T04:03:49.049Z,100622.56
2023-10-15T04:06:20.294Z,100730.34
2023-10-15T04:09:05.720Z,100711.06
2023-10-15T04:11:43.818Z,100681.53
2023-10-15T04:14:38.646Z,100683.50
2023-10-15T04:17:07.976Z,100675.31
2023-10-15T04:19:37.480Z,100672.13
2023-10-15T04:22:30.512Z,100670.53
2023-10-15T04:24:57.130Z,100665.94
2023-10-15T04:27:25.758Z,100659.69
2023-10-15T04:29:54.969Z,100664.59
2023-10-15T04:32:46.562Z,100674.84
2023-10-15T04:35:42.839Z,100687.41
2023-10-15T04:38:09.519Z,100636.66
2023-10-15T04:40:54.953Z,100676.19
2023-10-15T04:43:27.848Z,100665.19
2023-10-15T04:45:56.204Z,100669.22
2023-10-15T04:48:34.175Z,100667.78
2023-10-15T04:51:06.325Z,100661.88
2023-10-15T04:53:33.177Z,100667.03
2023-10-15T04:56:02.390Z,100649.94
2023-10-15T04:58:29.385Z,100561.16
2023-10-15T05:00:56.218Z,100637.97
2023-10-15T05:03:22.822Z,100663.97
2023-10-15T05:05:49.520Z,100672.13
2023-10-15T05:08:18.785Z,100688.84
2023-10-15T05:10:51.983Z,100693.38
2023-10-15T05:13:20.754Z,100685.47
2023-10-15T05:15:51.182Z,100722.63
2023-10-15T05:18:20.467Z,100707.72
2023-10-15T05:20:52.157Z,100704.25
2023-10-15T05:23:20.685Z,100686.25
2023-10-15T05:25:51.368Z,100707.34
2023-10-15T05:28:18.356Z,100733.47
2023-10-15T05:30:44.957Z,100734.63
2023-10-15T05:33:11.691Z,100745.00
2023-10-15T05:35:41.845Z,100747.69
2023-10-15T05:38:10.576Z,100752.69
2023-10-15T05:40:38.721Z,100742.06
2023-10-15T05:43:08.353Z,100706.03
2023-10-15T05:45:35.124Z,100741.72
2023-10-15T05:48:02.512Z,100654.41
2023-10-15T05:50:29.782Z,100750.44
2023-10-15T05:52:56.691Z,100738.03
2023-10-15T05:55:23.576Z,100730.63
2023-10-15T05:57:50.270Z,100660.16
2023-10-15T06:00:20.697Z,100699.22
2023-10-15T06:02:48.673Z,100677.59
2023-10-15T06:05:16.048Z,100735.47
2023-10-15T06:07:44.121Z,100668.25
2023-10-15T06:10:13.073Z,100707.47
2023-10-15T06:12:40.858Z,100700.06
2023-10-15T06:15:09.125Z,100690.66
2023-10-15T06:17:36.393Z,100677.59
2023-10-15T06:20:14.223Z,100703.03
2023-10-15T06:22:46.944Z,100712.81
2023-10-15T06:25:15.206Z,100728.06
2023-10-15T06:27:42.645Z,100736.78
2023-10-15T06:30:18.833Z,100675.72
2023-10-15T06:32:49.382Z,100670.38
2023-10-15T06:35:20.373Z,100754.94
2023-10-15T06:37:48.393Z,100754.13
2023-10-15T06:40:23.238Z,100750.72
2023-10-15T06:42:53.229Z,100760.41
2023-10-15T06:45:21.286Z,100764.09
2023-10-15T06:47:50.771Z,100773.25
2023-10-15T06:50:17.804Z,101029.94
2023-10-15T06:52:44.479Z,101028.09
2023-10-15T06:55:12.681Z,100970.53
2023-10-15T06:57:42.169Z,100984.28
2023-10-15T07:00:10.702Z,100922.25
2023-10-15T07:02:37.819Z,100862.63
2023-10-15T07:05:05.901Z,100846.59
2023-10-15T07:07:35.239Z,100820.66
2023-10-15T07:10:05.939Z,100797.91
2023-10-15T07:12:33.614Z,100815.41
2023-10-15T07:15:00.669Z,100752.53
2023-10-15T07:17:27.438Z,100809.72
2023-10-15T07:19:54.324Z,100766.63
2023-10-15T07:22:22.092Z,100821.81
2023-10-15T07:24:48.784Z,100777.63
2023-10-15T07:27:16.457Z,100835.88
2023-10-15T07:29:43.097Z,100825.91
2023-10-15T07:32:09.865Z,100832.16
2023-10-15T07:34:36.486Z,100827.09
2023-10-15T07:37:03.224Z,100827.69
2023-10-15T07:39:29.927Z,100828.28
2023-10-15T07:41:56.532Z,100832.84
2023-10-15T07:44:23.225Z,100822.34
2023-10-15T07:46:54.179Z,100826.31
2023-10-15T07:49:21.516Z,100777.47
2023-10-15T07:51:48.910Z,100840.22
2023-10-15T07:54:16.258Z,100818.44
2023-10-15T07:56:42.904Z,100833.88
2023-10-15T07:59:09.817Z,100786.63
2023-10-15T08:01:38.321Z,100838.16
2023-10-15T08:04:13.245Z,100724.97
2023-10-15T08:06:41.855Z,100867.75
2023-10-15T08:09:11.386Z,100833.91
2023-10-15T08:11:38.037Z,100819.09
2023-10-15T08:14:04.921Z,100875.09
2023-10-15T08:16:31.620Z,100887.13
2023-10-15T08:19:00.278Z,100882.13
2023-10-15T08:21:26.900Z,100866.19
2023-10-15T08:23:54.628Z,100887.31
2023-10-15T08:26:21.344Z,100902.66
2023-10-15T08:28:49.625Z,100900.53
2023-10-15T08:31:16.233Z,100911.88
2023-10-15T08:33:45.971Z,100910.81
2023-10-15T08:36:15.887Z,100922.50
2023-10-15T08:38:42.686Z,100915.41
2023-10-15T08:41:12.492Z,100893.13
2023-10-15T08:43:42.111Z,100898.84
2023-10-15T08:46:11.282Z,100847.63
2023-10-15T08:48:42.137Z,100900.28
2023-10-15T08:51:14.264Z,100884.03
2023-10-15T08:53:42.499Z,100919.66
2023-10-15T08:56:10.756Z,100916.06
2023-10-15T08:58:38.394Z,100940.28
2023-10-15T09:01:05.930Z,100820.66
2023-10-15T09:03:32.777Z,100858.47
2023-10-15T09:06:02.794Z,100865.47
2023-10-15T09:08:30.082Z,100859.16
2023-10-15T09:10:56.804Z,100908.19
2023-10-15T09:13:27.259Z,100912.84
2023-10-15T09:15:54.193Z,100929.66
2023-10-15T09:18:21.674Z,100935.06
2023-10-15T09:20:53.206Z,100931.09
2023-10-15T09:23:23.905Z,100945.72
2023-10-15T09:25:57.605Z,100943.53
2023-10-15T09:28:24.972Z,100959.56
2023-10-15T09:30:53.072Z,100973.69
2023-10-15T09:33:28.606Z,100975.03
2023-10-15T09:35:55.200Z,100984.13
2023-10-15T09:38:22.126Z,100983.59
2023-10-15T09:40:48.818Z,100988.16
2023-10-15T09:43:16.804Z,100977.97
2023-10-15T09:45:44.160Z,100979.50
2023-10-15T09:48:11.526Z,100991.06
2023-10-15T09:50:43.127Z,100991.16
2023-10-15T09:53:11.066Z,101010.25
2023-10-15T09:55:39.542Z,101000.66
2023-10-15T09:58:10.534Z,101009.59
2023-10-15T10:00:54.961Z,101004.06
2023-10-15T10:03:40.300Z,100991.28
2023-10-15T10:06:45.553Z,100995.59
2023-10-15T10:09:12.282Z,100944.91
2023-10-15T10:12:06.429Z,100978.63
2023-10-15T10:14:58.107Z,100994.53
2023-10-15T10:17:27.018Z,100921.56
2023-10-15T10:19:54.820Z,100954.56
2023-10-15T10:22:24.905Z,100929.91
2023-10-15T10:24:52.125Z,100969.78
2023-10-15T10:27:19.257Z,100893.78
2023-10-15T10:29:51.703Z,100968.16
2023-10-15T10:32:19.206Z,100986.03
2023-10-15T10:34:48.808Z,100987.25
2023-10-15T10:37:22.810Z,100994.13
2023-10-15T10:39:50.493Z,100980.78
2023-10-15T10:42:23.193Z,100976.22
2023-10-15T10:44:49.934Z,100979.91
2023-10-15T10:47:19.446Z,100983.97
2023-10-15T10:49:57.212Z,100992.47
2023-10-15T10:52:37.095Z,100992.38
2023-10-15T10:55:33.124Z,101017.59
2023-10-15T10:58:03.860Z,100989.31
2023-10-15T11:00:32.156Z,100999.16
2023-10-15T11:03:02.794Z,100955.69
2023-10-15T11:05:31.051Z,101020.94
2023-10-15T11:07:57.760Z,101007.72
2023-10-15T11:10:27.067Z,101032.91
2023-10-15T11:12:53.800Z,100988.72
2023-10-15T11:15:21.529Z,101035.13
2023-10-15T11:17:58.366Z,101037.34
2023-10-15T11:20:28.604Z,101039.94
2023-10-15T11:22:55.643Z,101040.13
2023-10-15T11:25:24.806Z,101044.44
2023-10-15T11:27:52.161Z,101029.84
2023-10-15T11:30:21.466Z,100963.41
2023-10-15T11:32:48.957Z,100980.06
2023-10-15T11:35:16.873Z,101032.69
2023-10-15T11:37:46.477Z,101030.78
2023-10-15T11:40:15.109Z,101037.34
2023-10-15T11:43:00.115Z,101030.97
2023-10-15T11:45:27.341Z,101044.28
2023-10-15T11:47:56.685Z,101005.16
2023-10-15T11:50:24.946Z,100994.78
2023-10-15T11:52:53.839Z,101044.41
2023-10-15T11:55:23.986Z,101050.41
2023-10-15T11:57:51.778Z,101040.03
2023-10-15T12:00:24.473Z,101045.56
2023-10-15T12:02:57.965Z,101045.31
2023-10-15T12:05:24.916Z,101043.47
2023-10-15T12:07:54.342Z,101040.34
2023-10-15T12:10:23.252Z,101026.72
2023-10-15T12:12:50.896Z,101060.94
2023-10-15T12:15:17.631Z,101023.28
2023-10-15T12:17:44.225Z,101070.44
2023-10-15T12:20:19.620Z,101041.56
2023-10-15T12:22:47.054Z,101068.44
2023-10-15T12:25:13.841Z,101075.69
2023-10-15T12:27:40.665Z,101032.19
2023-10-15T12:30:13.802Z,101082.72
2023-10-15T12:32:46.652Z,101032.03
2023-10-15T12:35:14.416Z,101107.75
2023-10-15T12:37:41.122Z,101106.63
2023-10-15T12:40:14.166Z,101079.72
2023-10-15T12:42:41.609Z,101151.59
2023-10-15T12:45:14.924Z,101158.06
2023-10-15T12:47:41.867Z,101171.78
2023-10-15T12:50:17.985Z,101163.84
2023-10-15T12:52:46.681Z,101170.59
2023-10-15T12:55:16.725Z,101178.88
2023-10-15T12:57:43.539Z,101174.66
2023-10-15T13:00:18.613Z,101182.03
2023-10-15T13:02:46.874Z,101192.91
2023-10-15T13:05:14.849Z,101190.84
2023-10-15T13:07:42.893Z,101149.22
2023-10-15T13:10:11.052Z,101185.75
2023-10-15T13:12:38.848Z,101184.94
2023-10-15T13:15:11.682Z,101175.56
2023-10-15T13:17:41.265Z,101150.56
2023-10-15T13:20:11.944Z,101192.53
2023-10-15T13:22:39.803Z,101192.31
2023-10-15T13:25:07.713Z,101179.03
2023-10-15T13:27:39.572Z,101203.72
2023-10-15T13:30:07.511Z,101214.38
2023-10-15T13:32:34.634Z,101213.69
2023-10-15T13:35:01.834Z,101238.97
2023-10-15T13:37:28.737Z,101232.19
2023-10-15T13:39:57.570Z,101068.66
2023-10-15T13:42:24.491Z,101101.84
2023-10-15T13:44:51.350Z,101055.47
2023-10-15T13:47:18.332Z,101057.66
2023-10-15T13:49:45.725Z,101056.22
2023-10-15T13:52:13.685Z,101051.94
2023-10-15T13:54:40.780Z,101085.44
2023-10-15T13:57:10.195Z,101053.06
2023-10-15T13:59:38.722Z,101070.69
2023-10-15T14:02:08.595Z,100969.25
2023-10-15T14:04:35.583Z,101125.25
2023-10-15T14:07:02.236Z,101124.78
2023-10-15T14:09:35.141Z,101115.94
2023-10-15T14:12:02.826Z,101030.72
2023-10-15T14:14:29.682Z,101131.75
2023-10-15T14:16:56.688Z,101130.25
2023-10-15T14:19:23.520Z,101117.00
2023-10-15T14:21:50.326Z,101137.91
2023-10-15T14:24:19.788Z,101147.91
2023-10-15T14:26:46.598Z,101147.75
2023-10-15T14:29:16.465Z,101125.91
2023-10-15T14:31:43.264Z,101120.03
2023-10-15T14:34:10.063Z,101179.41
2023-10-15T14:36:40.544Z,101171.88
2023-10-15T14:39:09.004Z,101064.94
2023-10-15T14:41:38.468Z,101169.56
2023-10-15T14:44:05.554Z,101207.56
2023-10-15T14:46:38.323Z,101181.22
2023-10-15T14:49:05.963Z,101149.47
2023-10-15T14:51:33.016Z,101181.84
2023-10-15T14:54:01.042Z,101141.78
2023-10-15T14:56:29.613Z,101122.63
2023-10-15T14:58:56.262Z,101060.69
2023-10-15T15:01:22.936Z,101100.72
2023-10-15T15:03:49.597Z,101105.28
2023-10-15T15:06:16.755Z,101055.38
2023-10-15T15:08:43.406Z,101102.81
2023-10-15T15:11:10.406Z,101109.28
2023-10-15T15:13:37.331Z,101111.44
2023-10-15T15:16:04.505Z,101128.44
2023-10-15T15:18:32.446Z,101142.09
2023-10-15T15:21:03.631Z,101136.97
2023-10-15T15:23:30.581Z,101149.22
2023-10-15T15:26:06.711Z,101162.72
2023-10-15T15:28:34.592Z,101159.81
2023-10-15T15:31:02.364Z,101172.53
2023-10-15T15:33:29.858Z,101169.84
2023-10-15T15:35:56.970Z,101185.06
2023-10-15T15:38:23.925Z,101180.16
2023-10-15T15:40:56.421Z,101181.03
2023-10-15T15:43:26.441Z,101176.38
2023-10-15T15:45:53.547Z,101105.28
2023-10-15T15:48:24.442Z,101191.31
2023-10-15T15:50:51.332Z,101172.78
2023-10-15T15:53:17.962Z,101137.00
2023-10-15T15:55:45.637Z,101149.28
2023-10-15T15:58:12.462Z,101174.28
2023-10-15T16:00:39.589Z,101206.50
2023-10-15T16:03:09.775Z,101213.13
2023-10-15T16:05:38.267Z,101204.53
2023-10-15T16:08:07.505Z,101194.75
2023-10-15T16:10:34.438Z,101193.25
2023-10-15T16:13:01.121Z,101206.75
2023-10-15T16:15:28.191Z,101204.69
2023-10-15T16:17:55.581Z,101204.69
2023-10-15T16:20:22.652Z,101224.03
2023-10-15T16:22:50.929Z,101220.00
2023-10-15T16:25:20.384Z,101159.78
2023-10-15T16:27:47.206Z,101205.38
2023-10-15T16:30:13.882Z,101200.34
2023-10-15T16:32:41.413Z,101205.84
2023-10-15T16:35:17.812Z,101218.00
2023-10-15T16:37:44.880Z,101222.84
2023-10-15T16:40:14.452Z,101217.75
2023-10-15T16:42:41.228Z,101171.38
2023-10-15T16:45:09.433Z,101225.69
2023-10-15T16:47:39.066Z,101221.97
2023-10-15T16:50:07.236Z,101198.31
2023-10-15T16:52:33.919Z,101202.38
2023-10-15T16:55:00.505Z,101237.94
2023-10-15T16:57:27.283Z,101240.78
2023-10-15T17:00:00.771Z,101194.59
2023-10-15T17:02:29.385Z,101251.25
2023-10-15T17:04:59.265Z,101227.72
2023-10-15T17:07:26.250Z,101181.31
2023-10-15T17:09:54.811Z,101229.97
2023-10-15T17:12:21.961Z,101286.41
2023-10-15T17:14:48.791Z,101226.69
2023-10-15T17:17:15.994Z,101293.00
2023-10-15T17:19:42.582Z,101248.31
2023-10-15T17:22:09.219Z,101280.16
2023-10-15T17:24:36.676Z,101276.44
2023-10-15T17:27:03.607Z,101276.50
2023-10-15T17:29:30.353Z,101271.69
2023-10-15T17:31:58.733Z,101261.28
2023-10-15T17:34:27.679Z,101260.22
2023-10-15T17:37:03.386Z,101297.50
2023-10-15T17:39:35.400Z,101308.59
2023-10-15T17:42:04.303Z,101317.50
2023-10-15T17:44:30.929Z,101320.44
2023-10-15T17:46:57.626Z,101306.91
2023-10-15T17:49:24.685Z,101311.44
2023-10-15T17:51:53.490Z,101314.03
2023-10-15T17:54:20.130Z,101313.59
2023-10-15T17:56:46.977Z,101308.22
2023-10-15T17:59:15.299Z,101319.28
2023-10-15T18:01:42.008Z,101304.53
2023-10-15T18:04:08.843Z,101281.28
2023-10-15T18:06:38.249Z,101262.53
2023-10-15T18:09:05.066Z,101265.31
2023-10-15T18:11:31.809Z,101233.97
2023-10-15T18:13:58.669Z,101227.28
2023-10-15T18:16:25.286Z,101263.31
2023-10-15T18:18:56.154Z,101269.44
2023-10-15T18:21:23.078Z,101230.81
2023-10-15T18:23:49.922Z,101263.91
2023-10-15T18:26:18.147Z,101267.31
2023-10-15T18:28:44.698Z,101264.75
2023-10-15T18:31:11.437Z,101264.16
2023-10-15T18:33:38.099Z,101276.69
2023-10-15T18:36:05.121Z,101272.75
2023-10-15T18:38:31.783Z,101268.31
2023-10-15T18:40:58.498Z,101271.69
2023-10-15T18:43:28.230Z,101283.31
2023-10-15T18:45:54.851Z,101278.47
2023-10-15T18:48:21.875Z,101286.53
2023-10-15T18:50:48.593Z,101287.19
2023-10-15T18:53:15.199Z,101277.91
2023-10-15T18:55:42.576Z,101297.81
2023-10-15T18:58:09.162Z,101308.28
2023-10-15T19:00:36.061Z,101232.66
2023-10-15T19:03:04.415Z,101286.91
2023-10-15T19:05:36.319Z,101334.19
2023-10-15T19:08:06.236Z,101334.09
2023-10-15T19:10:34.193Z,101332.69
2023-10-15T19:13:00.810Z,101348.56
2023-10-15T19:15:27.708Z,101350.66
2023-10-15T19:17:54.588Z,101315.06
2023-10-15T19:20:21.255Z,101375.34
2023-10-15T19:22:48.742Z,101379.63
2023-10-15T19:25:16.170Z,101376.34
2023-10-15T19:27:46.316Z,101371.69
2023-10-15T19:30:15.662Z,101347.50
2023-10-15T19:32:43.249Z,101382.13
2023-10-15T19:35:11.694Z,101391.03
2023-10-15T19:37:40.242Z,101310.25
2023-10-15T19:40:11.219Z,101385.47
2023-10-15T19:42:38.971Z,101386.53
2023-10-15T19:45:08.106Z,101334.22
2023-10-15T19:47:35.459Z,101351.22
2023-10-15T19:50:02.225Z,101357.81
2023-10-15T19:52:29.515Z,101347.66
2023-10-15T19:54:58.983Z,101314.75
2023-10-15T19:57:25.690Z,101373.22
2023-10-15T19:59:52.353Z,101380.09
2023-10-15T20:02:19.007Z,101329.75
2023-10-15T20:04:45.793Z,101395.97
2023-10-15T20:07:12.469Z,101407.22
2023-10-15T20:09:39.206Z,101363.47
2023-10-15T20:12:06.106Z,101323.56
2023-10-15T20:14:32.978Z,101356.66
2023-10-15T20:17:00.711Z,101327.72
2023-10-15T20:19:28.537Z,101367.72
2023-10-15T20:21:56.553Z,101360.22
2023-10-15T20:24:23.198Z,101379.41
2023-10-15T20:26:49.938Z,101378.38
2023-10-15T20:29:16.605Z,101347.38
2023-10-15T20:31:44.996Z,101359.41
2023-10-15T20:34:13.255Z,101374.47
2023-10-15T20:36:40.320Z,101376.22
2023-10-15T20:39:10.470Z,101382.94
2023-10-15T20:41:39.731Z,101375.59
2023-10-15T20:44:06.355Z,101385.25
2023-10-15T20:46:34.157Z,101380.06
2023-10-15T20:49:01.065Z,101391.00
2023-10-15T20:51:27.708Z,101380.94
2023-10-15T20:53:54.396Z,101363.50
2023-10-15T20:56:20.959Z,101391.09
2023-10-15T20:58:47.495Z,101386.97
2023-10-15T21:01:14.163Z,101412.81
2023-10-15T21:03:40.933Z,101406.78
2023-10-15T21:06:08.216Z,101399.53
2023-10-15T21:08:35.194Z,101403.38
2023-10-15T21:11:02.235Z,101408.09
2023-10-15T21:13:28.930Z,101338.34
2023-10-15T21:15:55.706Z,101388.13
2023-10-15T21:18:22.440Z,101387.56
2023-10-15T21:20:49.084Z,101385.28
2023-10-15T21:23:15.666Z,101352.22
2023-10-15T21:25:42.430Z,101332.19
2023-10-15T21:28:09.252Z,101380.09
2023-10-15T21:30:36.171Z,101380.25
2023-10-15T21:33:04.372Z,101378.47
2023-10-15T21:35:31.283Z,101407.69
2023-10-15T21:37:59.461Z,101341.31
2023-10-15T21:40:26.044Z,101326.28
2023-10-15T21:42:52.814Z,101381.13
2023-10-15T21:45:20.541Z,101374.91
2023-10-15T21:47:47.313Z,101323.97
2023-10-15T21:50:14.580Z,101322.81
2023-10-15T21:52:41.245Z,101367.84
2023-10-15T21:55:08.820Z,101366.19
2023-10-15T21:57:35.501Z,101372.69
2023-10-15T22:00:02.166Z,101367.63
2023-10-15T22:02:30.172Z,101357.00
2023-10-15T22:04:56.983Z,101367.25
2023-10-15T22:07:23.608Z,101366.19
2023-10-15T22:09:50.229Z,101374.91
2023-10-15T22:12:20.214Z,101376.84
2023-10-15T22:14:47.088Z,101369.84
2023-10-15T22:17:15.898Z,101369.09
2023-10-15T22:19:44.169Z,101356.22
2023-10-15T22:22:12.376Z,101342.09
2023-10-15T22:24:42.326Z,101362.75
2023-10-15T22:27:15.100Z,101363.91
2023-10-15T22:29:45.275Z,101357.78
2023-10-15T22:32:12.435Z,101364.94
2023-10-15T22:34:39.748Z,101363.53
2023-10-15T22:37:09.519Z,101359.97
2023-10-15T22:39:39.526Z,101357.94
2023-10-15T22:42:12.549Z,101351.53
2023-10-15T22:44:46.278Z,101357.56
2023-10-15T22:47:14.157Z,101344.34
2023-10-15T22:49:41.832Z,101357.47
2023-10-15T22:52:08.970Z,101360.44
2023-10-15T22:54:35.898Z,101366.16
2023-10-15T22:57:04.715Z,101373.56
2023-10-15T22:59:31.784Z,101360.91
2023-10-15T23:01:58.571Z,101354.31
2023-10-15T23:04:25.364Z,101299.16
2023-10-15T23:06:52.466Z,101366.44
2023-10-15T23:09:19.583Z,101374.69
2023-10-15T23:11:46.975Z,101357.84
2023-10-15T23:14:13.709Z,101223.47
2023-10-15T23:16:41.287Z,101363.91
2023-10-15T23:19:08.025Z,101360.53
2023-10-15T23:21:37.447Z,101342.75
2023-10-15T23:24:08.688Z,101331.09
2023-10-15T23:26:36.498Z,101367.00
2023-10-15T23:29:06.581Z,101364.72
2023-10-15T23:31:33.341Z,101374.94
2023-10-15T23:34:00.159Z,101382.25
2023-10-15T23:36:30.329Z,101377.75
2023-10-15T23:38:57.117Z,101380.44
2023-10-15T23:41:23.794Z,101380.50
2023-10-15T23:43:51.869Z,101383.94
2023-10-15T23:46:18.645Z,101380.09
2023-10-15T23:48:53.209Z,101385.25
2023-10-15T23:51:22.618Z,101375.81
2023-10-15T23:53:53.585Z,101372.56
2023-10-15T23:56:27.388Z,101318.34
2023-10-15T23:59:03.598Z,101375.63
